createdAt,value
2022-08-22T00:02:37.384Z,100653.20
2022-08-22T00:02:46.232Z,100681.40
2022-08-22T00:02:49.418Z,100671.60
2022-08-22T00:03:01.116Z,100657.00
2022-08-22T00:05:20.497Z,100648.40
2022-08-22T00:08:22.632Z,100650.80
2022-08-22T00:10:59.574Z,100649.00
2022-08-22T00:13:47.974Z,100653.60
2022-08-22T00:16:50.890Z,100655.40
2022-08-22T00:19:33.087Z,100647.80
2022-08-22T00:22:20.753Z,100645.40
2022-08-22T00:25:00.610Z,100644.60
2022-08-22T00:28:08.147Z,100643.20
2022-08-22T00:31:13.774Z,100643.80
2022-08-22T00:33:51.302Z,100639.80
2022-08-22T00:36:56.757Z,100636.40
2022-08-22T00:39:43.428Z,100629.60
2022-08-22T00:42:35.567Z,100632.40
2022-08-22T00:45:37.307Z,100634.40
2022-08-22T00:48:42.616Z,100628.60
2022-08-22T00:51:28.090Z,100621.00
2022-08-22T00:54:16.762Z,100620.20
2022-08-22T00:57:13.524Z,100611.00
2022-08-22T01:00:11.606Z,100612.80
2022-08-22T01:02:58.006Z,100611.20
2022-08-22T01:05:49.128Z,100613.40
2022-08-22T01:08:38.240Z,100612.20
2022-08-22T01:11:44.244Z,100616.40
2022-08-22T01:14:36.353Z,100619.20
2022-08-22T01:17:38.115Z,100618.60
2022-08-22T01:20:55.453Z,100621.00
2022-08-22T01:23:50.578Z,100620.20
2022-08-22T01:26:44.009Z,100619.00
2022-08-22T01:29:49.682Z,100622.60
2022-08-22T01:33:04.032Z,100631.60
2022-08-22T01:36:03.137Z,100637.00
2022-08-22T01:38:55.473Z,100639.20
2022-08-22T01:42:00.330Z,100644.40
2022-08-22T01:44:53.704Z,100655.20
2022-08-22T01:47:37.618Z,100647.80
2022-08-22T01:50:44.055Z,100642.00
2022-08-22T01:53:19.634Z,100633.40
2022-08-22T01:56:15.853Z,100625.40
2022-08-22T01:58:57.744Z,100617.20
2022-08-22T02:01:39.716Z,100609.60
2022-08-22T02:04:26.868Z,100602.40
2022-08-22T02:07:31.610Z,100596.20
2022-08-22T02:10:19.956Z,100589.00
2022-08-22T02:13:13.364Z,100577.00
2022-08-22T02:15:41.130Z,100579.00
2022-08-22T02:18:28.050Z,100586.00
2022-08-22T02:21:18.845Z,100584.80
2022-08-22T02:24:04.970Z,100578.60
2022-08-22T02:26:54.460Z,100574.60
2022-08-22T02:30:09.294Z,100578.20
2022-08-22T02:32:42.492Z,100576.20
2022-08-22T02:35:14.258Z,100576.40
2022-08-22T02:38:07.243Z,100577.80
2022-08-22T02:40:48.222Z,100572.60
2022-08-22T02:43:27.296Z,100566.20
2022-08-22T02:46:25.116Z,100570.40
2022-08-22T02:49:02.416Z,100580.80
2022-08-22T02:51:51.325Z,100581.00
2022-08-22T02:54:33.978Z,100582.00
2022-08-22T02:57:21.565Z,100580.60
2022-08-22T03:00:27.757Z,100579.80
2022-08-22T03:03:16.306Z,100583.60
2022-08-22T03:05:44.038Z,100580.00
2022-08-22T03:08:29.302Z,100576.40
2022-08-22T03:11:06.107Z,100578.80
2022-08-22T03:14:07.895Z,100571.40
2022-08-22T03:16:50.779Z,100570.20
2022-08-22T03:19:43.792Z,100565.20
2022-08-22T03:22:31.276Z,100573.20
2022-08-22T03:25:48.269Z,100570.80
2022-08-22T03:28:27.550Z,100562.40
2022-08-22T03:31:11.501Z,100562.80
2022-08-22T03:33:40.204Z,100561.00
2022-08-22T03:36:14.190Z,100565.40
2022-08-22T03:39:17.147Z,100562.20
2022-08-22T03:42:22.017Z,100567.40
2022-08-22T03:45:33.656Z,100568.20
2022-08-22T03:48:14.171Z,100573.00
2022-08-22T03:51:18.123Z,100574.80
2022-08-22T03:54:23.268Z,100572.40
2022-08-22T03:57:22.826Z,100568.40
2022-08-22T04:00:28.935Z,100572.00
2022-08-22T04:03:38.279Z,100574.80
2022-08-22T04:06:53.640Z,100572.20
2022-08-22T04:10:13.906Z,100566.60
2022-08-22T04:12:49.764Z,100565.20
2022-08-22T04:16:00.950Z,100569.40
2022-08-22T04:18:59.778Z,100579.60
2022-08-22T04:22:02.557Z,100589.60
2022-08-22T04:25:04.693Z,100592.00
2022-08-22T04:28:10.209Z,100579.60
2022-08-22T04:31:03.741Z,100580.00
2022-08-22T04:34:03.069Z,100586.40
2022-08-22T04:36:42.857Z,100594.40
2022-08-22T04:39:25.893Z,100603.60
2022-08-22T04:42:32.398Z,100622.80
2022-08-22T04:45:35.940Z,100637.20
2022-08-22T04:48:19.980Z,100634.00
2022-08-22T04:51:10.771Z,100624.40
2022-08-22T04:54:16.936Z,100620.00
2022-08-22T04:57:19.207Z,100624.20
2022-08-22T04:59:49.126Z,100610.20
2022-08-22T05:02:27.685Z,100605.40
2022-08-22T05:05:04.396Z,100605.20
2022-08-22T05:07:42.647Z,100596.60
2022-08-22T05:10:27.004Z,100594.40
2022-08-22T05:13:16.348Z,100592.00
2022-08-22T05:15:49.940Z,100589.00
2022-08-22T05:18:29.762Z,100586.40
2022-08-22T05:21:04.680Z,100586.20
2022-08-22T05:24:08.606Z,100583.80
2022-08-22T05:26:48.914Z,100579.40
2022-08-22T05:29:23.690Z,100577.80
2022-08-22T05:32:02.201Z,100588.40
2022-08-22T05:34:38.835Z,100583.20
2022-08-22T05:37:19.945Z,100589.00
2022-08-22T05:39:56.013Z,100585.00
2022-08-22T05:42:37.544Z,100590.00
2022-08-22T05:45:12.044Z,100594.40
2022-08-22T05:47:48.167Z,100592.60
2022-08-22T05:50:27.029Z,100581.80
2022-08-22T05:53:15.710Z,100583.40
2022-08-22T05:55:55.111Z,100581.80
2022-08-22T05:58:47.928Z,100580.80
2022-08-22T06:02:01.141Z,100590.80
2022-08-22T06:04:55.843Z,100596.60
2022-08-22T06:07:33.698Z,100596.00
2022-08-22T06:10:27.187Z,100592.80
2022-08-22T06:13:11.882Z,100583.00
2022-08-22T06:15:58.480Z,100584.00
2022-08-22T06:18:31.482Z,100579.40
2022-08-22T06:21:09.832Z,100572.40
2022-08-22T06:24:01.190Z,100561.40
2022-08-22T06:26:40.293Z,100554.60
2022-08-22T06:29:09.792Z,100557.20
2022-08-22T06:31:48.318Z,100556.80
2022-08-22T06:34:27.477Z,100550.60
2022-08-22T06:36:58.481Z,100547.60
2022-08-22T06:39:34.626Z,100548.20
2022-08-22T06:42:17.349Z,100553.20
2022-08-22T06:44:51.418Z,100549.20
2022-08-22T06:47:30.265Z,100549.40
2022-08-22T06:50:06.787Z,100540.40
2022-08-22T06:52:59.896Z,100548.40
2022-08-22T06:55:30.572Z,100545.60
2022-08-22T06:58:11.643Z,100542.00
2022-08-22T07:00:42.712Z,100547.00
2022-08-22T07:03:30.468Z,100550.60
2022-08-22T07:05:58.674Z,100542.20
2022-08-22T07:08:30.823Z,100539.60
2022-08-22T07:11:14.823Z,100533.60
2022-08-22T07:14:00.317Z,100521.40
2022-08-22T07:16:55.143Z,100516.60
2022-08-22T07:19:33.683Z,100516.00
2022-08-22T07:22:14.741Z,100524.00
2022-08-22T07:25:02.370Z,100524.20
2022-08-22T07:27:58.382Z,100521.80
2022-08-22T07:30:56.146Z,100534.20
2022-08-22T07:33:48.322Z,100539.00
2022-08-22T07:36:33.720Z,100545.40
2022-08-22T07:39:27.383Z,100550.20
2022-08-22T07:42:18.891Z,100546.00
2022-08-22T07:45:13.820Z,100550.80
2022-08-22T07:47:49.791Z,100557.20
2022-08-22T07:50:30.589Z,100562.40
2022-08-22T07:53:17.997Z,100568.60
2022-08-22T07:55:49.746Z,100569.60
2022-08-22T07:58:21.245Z,100565.20
2022-08-22T08:00:50.625Z,100566.40
2022-08-22T08:03:23.445Z,100564.00
2022-08-22T08:05:53.469Z,100561.00
2022-08-22T08:08:43.075Z,100566.80
2022-08-22T08:11:16.994Z,100567.20
2022-08-22T08:13:53.191Z,100561.40
2022-08-22T08:16:28.082Z,100566.00
2022-08-22T08:19:00.034Z,100566.40
2022-08-22T08:21:36.895Z,100563.60
2022-08-22T08:24:13.420Z,100561.20
2022-08-22T08:27:14.252Z,100547.40
2022-08-22T08:29:57.067Z,100545.40
2022-08-22T08:32:32.044Z,100542.40
2022-08-22T08:35:13.496Z,100528.40
2022-08-22T08:38:18.615Z,100514.60
2022-08-22T08:41:09.354Z,100507.00
2022-08-22T08:43:55.678Z,100506.00
2022-08-22T08:47:11.097Z,100506.80
2022-08-22T08:49:59.791Z,100506.80
2022-08-22T08:53:04.241Z,100500.60
2022-08-22T08:55:58.567Z,100498.20
2022-08-22T08:58:53.371Z,100480.60
2022-08-22T09:01:36.144Z,100485.60
2022-08-22T09:04:56.403Z,100496.00
2022-08-22T09:08:05.492Z,100495.80
2022-08-22T09:10:57.631Z,100498.20
2022-08-22T09:13:41.915Z,100504.60
2022-08-22T09:16:42.633Z,100498.80
2022-08-22T09:19:53.291Z,100504.40
2022-08-22T09:22:57.022Z,100504.00
2022-08-22T09:25:52.151Z,100508.40
2022-08-22T09:28:39.415Z,100503.20
2022-08-22T09:31:22.355Z,100503.40
2022-08-22T09:34:30.155Z,100505.80
2022-08-22T09:37:16.398Z,100504.60
2022-08-22T09:40:10.482Z,100507.60
2022-08-22T09:42:54.880Z,100503.60
2022-08-22T09:46:21.181Z,100503.40
2022-08-22T09:49:08.389Z,100498.20
2022-08-22T09:51:45.762Z,100494.40
2022-08-22T09:54:31.141Z,100491.40
2022-08-22T09:57:44.534Z,100499.60
2022-08-22T10:00:23.942Z,100500.60
2022-08-22T10:03:04.435Z,100496.60
2022-08-22T10:05:52.873Z,100502.60
2022-08-22T10:09:09.966Z,100503.40
2022-08-22T10:12:12.882Z,100505.80
2022-08-22T10:15:23.114Z,100507.40
2022-08-22T10:18:16.215Z,100503.60
2022-08-22T10:21:11.514Z,100503.00
2022-08-22T10:24:34.229Z,100505.20
2022-08-22T10:27:19.587Z,100500.80
2022-08-22T10:30:08.206Z,100492.80
2022-08-22T10:33:13.191Z,100491.00
2022-08-22T10:35:43.991Z,100495.80
2022-08-22T10:38:47.579Z,100490.40
2022-08-22T10:41:52.640Z,100487.40
2022-08-22T10:44:59.309Z,100484.60
2022-08-22T10:47:39.219Z,100491.60
2022-08-22T10:50:24.818Z,100490.20
2022-08-22T10:53:28.980Z,100488.00
2022-08-22T10:56:07.201Z,100486.20
2022-08-22T10:58:56.054Z,100480.20
2022-08-22T11:01:42.149Z,100482.80
2022-08-22T11:05:14.068Z,100478.40
2022-08-22T11:08:06.410Z,100480.00
2022-08-22T11:11:07.221Z,100478.20
2022-08-22T11:14:02.918Z,100482.40
2022-08-22T11:16:55.389Z,100490.20
2022-08-22T11:19:41.595Z,100495.60
2022-08-22T11:22:30.528Z,100497.80
2022-08-22T11:25:36.045Z,100493.20
2022-08-22T11:28:31.100Z,100488.20
2022-08-22T11:31:31.636Z,100486.00
2022-08-22T11:34:31.579Z,100482.40
2022-08-22T11:37:11.146Z,100477.40
2022-08-22T11:40:32.272Z,100472.20
2022-08-22T11:43:48.844Z,100470.00
2022-08-22T11:46:32.183Z,100458.00
2022-08-22T11:49:25.696Z,100458.00
2022-08-22T11:52:08.513Z,100443.60
2022-08-22T11:55:00.030Z,100452.80
2022-08-22T11:57:50.091Z,100452.60
2022-08-22T12:00:53.743Z,100457.20
2022-08-22T12:03:58.183Z,100452.00
2022-08-22T12:06:45.475Z,100449.00
2022-08-22T12:09:52.155Z,100447.00
2022-08-22T12:12:44.774Z,100450.40
2022-08-22T12:15:24.493Z,100442.60
2022-08-22T12:18:10.382Z,100426.80
2022-08-22T12:20:46.858Z,100416.80
2022-08-22T12:23:49.420Z,100418.00
2022-08-22T12:27:07.924Z,100432.40
2022-08-22T12:30:14.185Z,100441.60
2022-08-22T12:33:40.976Z,100440.40
2022-08-22T12:36:56.023Z,100429.60
2022-08-22T12:40:08.969Z,100420.20
2022-08-22T12:43:12.659Z,100416.60
2022-08-22T12:46:04.804Z,100417.40
2022-08-22T12:49:00.251Z,100419.20
2022-08-22T12:52:00.930Z,100409.60
2022-08-22T12:54:55.476Z,100413.80
2022-08-22T12:57:41.179Z,100414.60
2022-08-22T13:00:34.746Z,100409.60
2022-08-22T13:03:11.267Z,100414.00
2022-08-22T13:05:45.574Z,100428.40
2022-08-22T13:08:38.400Z,100430.60
2022-08-22T13:11:23.048Z,100426.60
2022-08-22T13:14:01.418Z,100430.00
2022-08-22T13:16:49.038Z,100439.00
2022-08-22T13:19:30.239Z,100444.00
2022-08-22T13:22:13.592Z,100439.60
2022-08-22T13:24:59.572Z,100443.40
2022-08-22T13:28:01.049Z,100439.80
2022-08-22T13:30:39.946Z,100434.20
2022-08-22T13:33:29.933Z,100433.80
2022-08-22T13:36:06.935Z,100437.20
2022-08-22T13:38:46.547Z,100443.60
2022-08-22T13:41:26.386Z,100442.80
2022-08-22T13:44:06.733Z,100443.00
2022-08-22T13:46:44.520Z,100431.80
2022-08-22T13:49:40.635Z,100433.40
2022-08-22T13:52:30.460Z,100430.00
2022-08-22T13:55:19.077Z,100429.80
2022-08-22T13:57:59.558Z,100422.60
2022-08-22T14:00:39.157Z,100414.20
2022-08-22T14:03:36.190Z,100413.00
2022-08-22T14:06:36.995Z,100406.00
2022-08-22T14:09:32.758Z,100409.20
2022-08-22T14:12:16.092Z,100409.60
2022-08-22T14:14:54.390Z,100414.80
2022-08-22T14:17:31.249Z,100412.00
2022-08-22T14:20:32.532Z,100411.20
2022-08-22T14:23:08.692Z,100409.60
2022-08-22T14:25:40.643Z,100403.80
2022-08-22T14:28:28.791Z,100400.20
2022-08-22T14:31:08.479Z,100394.00
2022-08-22T14:33:45.593Z,100391.40
2022-08-22T14:36:23.970Z,100400.60
2022-08-22T14:39:10.098Z,100399.00
2022-08-22T14:41:52.363Z,100391.80
2022-08-22T14:44:37.747Z,100388.60
2022-08-22T14:47:52.772Z,100389.80
2022-08-22T14:50:30.326Z,100385.80
2022-08-22T14:53:31.016Z,100389.40
2022-08-22T14:56:10.968Z,100386.20
2022-08-22T14:58:59.478Z,100381.40
2022-08-22T15:01:33.095Z,100378.00
2022-08-22T15:04:18.837Z,100377.40
2022-08-22T15:06:58.870Z,100371.80
2022-08-22T15:09:37.190Z,100369.60
2022-08-22T15:12:33.789Z,100370.20
2022-08-22T15:15:52.528Z,100365.20
2022-08-22T15:18:28.631Z,100363.20
2022-08-22T15:21:24.112Z,100362.20
2022-08-22T15:23:59.638Z,100364.40
2022-08-22T15:26:38.120Z,100360.80
2022-08-22T15:29:20.742Z,100354.80
2022-08-22T15:32:06.664Z,100351.20
2022-08-22T15:34:42.102Z,100348.00
2022-08-22T15:37:16.214Z,100348.40
2022-08-22T15:40:13.652Z,100349.40
2022-08-22T15:42:50.561Z,100345.40
2022-08-22T15:45:34.908Z,100345.80
2022-08-22T15:48:13.512Z,100350.60
2022-08-22T15:51:02.437Z,100355.40
2022-08-22T15:54:16.404Z,100357.20
2022-08-22T15:56:52.858Z,100356.40
2022-08-22T15:59:47.919Z,100365.00
2022-08-22T16:02:53.427Z,100363.20
2022-08-22T16:05:53.180Z,100360.00
2022-08-22T16:08:50.766Z,100361.60
2022-08-22T16:11:34.748Z,100366.00
2022-08-22T16:14:22.483Z,100363.40
2022-08-22T16:16:51.082Z,100368.40
2022-08-22T16:19:27.281Z,100364.40
2022-08-22T16:21:54.954Z,100360.00
2022-08-22T16:24:22.738Z,100359.80
2022-08-22T16:26:52.642Z,100365.20
2022-08-22T16:29:33.927Z,100369.40
2022-08-22T16:32:12.207Z,100371.00
2022-08-22T16:34:45.870Z,100369.20
2022-08-22T16:37:18.041Z,100372.20
2022-08-22T16:40:14.408Z,100369.20
2022-08-22T16:43:12.999Z,100366.20
2022-08-22T16:45:46.170Z,100366.00
2022-08-22T16:48:36.205Z,100365.40
2022-08-22T16:51:18.442Z,100357.40
2022-08-22T16:54:02.683Z,100351.20
2022-08-22T16:56:37.658Z,100349.20
2022-08-22T16:59:39.299Z,100345.00
2022-08-22T17:02:23.444Z,100343.00
2022-08-22T17:05:04.343Z,100343.80
2022-08-22T17:08:03.392Z,100344.20
2022-08-22T17:10:57.115Z,100343.20
2022-08-22T17:13:32.727Z,100335.80
2022-08-22T17:16:23.358Z,100345.40
2022-08-22T17:19:21.342Z,100338.00
2022-08-22T17:22:41.546Z,100336.20
2022-08-22T17:25:27.643Z,100338.40
2022-08-22T17:28:20.221Z,100328.40
2022-08-22T17:31:25.344Z,100323.20
2022-08-22T17:34:21.904Z,100321.40
2022-08-22T17:37:02.636Z,100322.00
2022-08-22T17:39:55.548Z,100323.00
2022-08-22T17:43:13.525Z,100317.20
2022-08-22T17:45:59.895Z,100320.40
2022-08-22T17:48:58.146Z,100317.20
2022-08-22T17:51:43.299Z,100319.60
2022-08-22T17:54:37.687Z,100326.00
2022-08-22T17:57:30.226Z,100336.80
2022-08-22T18:00:11.794Z,100334.00
2022-08-22T18:03:06.619Z,100331.20
2022-08-22T18:05:52.887Z,100337.40
2022-08-22T18:11:52.819Z,100341.20
2022-08-22T18:14:56.985Z,100340.00
2022-08-22T18:17:50.948Z,100342.80
2022-08-22T18:20:51.538Z,100338.20
2022-08-22T18:23:44.694Z,100340.40
2022-08-22T18:26:34.855Z,100336.40
2022-08-22T18:29:12.170Z,100336.60
2022-08-22T18:32:12.799Z,100337.20
2022-08-22T18:34:52.130Z,100335.60
2022-08-22T18:37:31.530Z,100332.20
2022-08-22T18:40:28.266Z,100331.00
2022-08-22T18:43:04.508Z,100330.80
2022-08-22T18:45:44.816Z,100334.80
2022-08-22T18:48:29.778Z,100345.40
2022-08-22T18:51:24.408Z,100350.80
2022-08-22T18:54:06.293Z,100348.60
2022-08-22T18:56:54.052Z,100346.00
2022-08-22T19:00:02.759Z,100351.20
2022-08-22T19:02:56.068Z,100347.80
2022-08-22T19:05:32.939Z,100348.40
2022-08-22T19:08:01.019Z,100352.60
2022-08-22T19:10:55.723Z,100353.60
2022-08-22T19:13:45.824Z,100355.60
2022-08-22T19:16:39.331Z,100358.80
2022-08-22T19:19:53.932Z,100356.40
2022-08-22T19:22:29.186Z,100361.40
2022-08-22T19:25:09.228Z,100363.20
2022-08-22T19:27:44.635Z,100362.80
2022-08-22T19:30:34.380Z,100366.20
2022-08-22T19:33:13.818Z,100367.00
2022-08-22T19:35:41.556Z,100363.40
2022-08-22T19:38:12.060Z,100373.20
2022-08-22T19:40:45.705Z,100370.20
2022-08-22T19:43:35.747Z,100372.80
2022-08-22T19:46:10.938Z,100374.00
2022-08-22T19:48:52.660Z,100382.80
2022-08-22T19:51:20.467Z,100376.00
2022-08-22T19:54:21.322Z,100372.60
2022-08-22T19:57:14.867Z,100376.00
2022-08-22T20:00:09.266Z,100372.40
2022-08-22T20:03:01.991Z,100376.80
2022-08-22T20:05:56.608Z,100376.00
2022-08-22T20:08:36.574Z,100376.00
2022-08-22T20:11:14.853Z,100377.00
2022-08-22T20:13:44.350Z,100374.80
2022-08-22T20:16:23.484Z,100377.00
2022-08-22T20:19:08.816Z,100380.40
2022-08-22T20:21:56.835Z,100378.20
2022-08-22T20:24:40.333Z,100376.60
2022-08-22T20:27:29.587Z,100374.40
2022-08-22T20:30:13.351Z,100374.80
2022-08-22T20:32:47.169Z,100374.40
2022-08-22T20:35:47.510Z,100371.80
2022-08-22T20:38:22.178Z,100370.60
2022-08-22T20:41:20.864Z,100373.80
2022-08-22T20:44:00.754Z,100372.40
2022-08-22T20:46:43.564Z,100370.40
2022-08-22T20:49:20.294Z,100369.60
2022-08-22T20:52:04.270Z,100366.80
2022-08-22T20:54:39.924Z,100366.20
2022-08-22T20:57:18.255Z,100362.60
2022-08-22T20:59:57.317Z,100365.80
2022-08-22T21:02:37.899Z,100362.20
2022-08-22T21:05:24.030Z,100360.40
2022-08-22T21:08:14.034Z,100360.00
2022-08-22T21:11:01.380Z,100359.20
2022-08-22T21:13:34.782Z,100358.60
2022-08-22T21:16:15.938Z,100358.40
2022-08-22T21:18:53.888Z,100359.40
2022-08-22T21:21:27.046Z,100361.00
2022-08-22T21:24:01.441Z,100360.40
2022-08-22T21:26:37.015Z,100366.40
2022-08-22T21:29:08.934Z,100364.60
2022-08-22T21:31:54.588Z,100366.80
2022-08-22T21:34:36.541Z,100370.20
2022-08-22T21:37:31.737Z,100368.40
2022-08-22T21:40:14.715Z,100362.80
2022-08-22T21:42:59.463Z,100369.60
2022-08-22T21:45:39.390Z,100367.20
2022-08-22T21:48:38.072Z,100367.60
2022-08-22T21:51:42.015Z,100373.00
2022-08-22T21:54:31.979Z,100373.60
2022-08-22T21:57:17.869Z,100371.40
2022-08-22T21:59:59.694Z,100369.60
2022-08-22T22:02:36.754Z,100371.20
2022-08-22T22:05:13.988Z,100372.80
2022-08-22T22:07:46.214Z,100370.60
2022-08-22T22:10:19.626Z,100367.00
2022-08-22T22:12:52.125Z,100369.20
2022-08-22T22:15:24.703Z,100362.40
2022-08-22T22:17:53.403Z,100354.80
2022-08-22T22:20:24.721Z,100355.80
2022-08-22T22:22:52.735Z,100349.80
2022-08-22T22:25:40.346Z,100343.80
2022-08-22T22:28:23.759Z,100338.40
2022-08-22T22:30:55.936Z,100340.00
2022-08-22T22:33:29.420Z,100350.00
2022-08-22T22:36:04.485Z,100348.80
2022-08-22T22:38:32.815Z,100357.00
2022-08-22T22:41:00.836Z,100361.40
2022-08-22T22:43:28.710Z,100360.60
2022-08-22T22:45:56.639Z,100362.80
2022-08-22T22:48:24.904Z,100368.00
2022-08-22T22:50:54.730Z,100370.40
2022-08-22T22:53:38.738Z,100376.00
2022-08-22T22:56:15.886Z,100375.40
2022-08-22T22:58:44.432Z,100376.80
2022-08-22T23:01:18.492Z,100377.20
2022-08-22T23:03:46.969Z,100373.20
2022-08-22T23:06:20.166Z,100368.40
2022-08-22T23:08:49.370Z,100368.20
2022-08-22T23:11:25.810Z,100369.20
2022-08-22T23:13:54.275Z,100372.40
2022-08-22T23:16:28.070Z,100369.60
2022-08-22T23:18:56.580Z,100362.80
2022-08-22T23:21:30.296Z,100365.40
2022-08-22T23:24:00.254Z,100371.40
2022-08-22T23:26:29.893Z,100369.00
2022-08-22T23:28:59.235Z,100368.60
2022-08-22T23:31:28.870Z,100366.80
2022-08-22T23:34:01.911Z,100366.20
2022-08-22T23:36:29.810Z,100368.20
2022-08-22T23:38:57.614Z,100364.00
2022-08-22T23:41:26.639Z,100361.60
2022-08-22T23:43:55.531Z,100360.80
2022-08-22T23:46:26.378Z,100362.20
2022-08-22T23:48:54.657Z,100359.60
2022-08-22T23:51:25.819Z,100361.20
2022-08-22T23:53:57.163Z,100359.00
2022-08-22T23:56:31.122Z,100362.20
2022-08-22T23:59:04.666Z,100357.20
